Map

Track Data

SID SEASON NUMBER BASIN SUBBASIN NAME ISO_TIME NATURE LAT LON WMO_WIND WMO_PRES WMO_AGENCY TRACK_TYPE DIST2LAND LANDFALL IFLAG USA_AGENCY USA_ATCF_ID USA_LAT USA_LON USA_RECORD USA_STATUS USA_WIND USA_PRES USA_SSHS USA_R34_NE USA_R34_SE USA_R34_SW USA_R34_NW USA_R50_NE USA_R50_SE USA_R50_SW USA_R50_NW USA_R64_NE USA_R64_SE USA_R64_SW USA_R64_NW USA_POCI USA_ROCI USA_RMW USA_EYE TOKYO_LAT TOKYO_LON TOKYO_GRADE TOKYO_WIND TOKYO_PRES TOKYO_R50_DIR TOKYO_R50_LONG TOKYO_R50_SHORT TOKYO_R30_DIR TOKYO_R30_LONG TOKYO_R30_SHORT TOKYO_LAND CMA_LAT CMA_LON CMA_CAT CMA_WIND CMA_PRES HKO_LAT HKO_LON HKO_CAT HKO_WIND HKO_PRES NEWDELHI_LAT NEWDELHI_LON NEWDELHI_GRADE NEWDELHI_WIND NEWDELHI_PRES NEWDELHI_CI NEWDELHI_DP NEWDELHI_POCI REUNION_LAT REUNION_LON REUNION_TYPE REUNION_WIND REUNION_PRES REUNION_TNUM REUNION_CI REUNION_RMW REUNION_R34_NE REUNION_R34_SE REUNION_R34_SW REUNION_R34_NW REUNION_R50_NE REUNION_R50_SE REUNION_R50_SW REUNION_R50_NW REUNION_R64_NE REUNION_R64_SE REUNION_R64_SW REUNION_R64_NW BOM_LAT BOM_LON BOM_TYPE BOM_WIND BOM_PRES BOM_TNUM BOM_CI BOM_RMW BOM_R34_NE BOM_R34_SE BOM_R34_SW BOM_R34_NW BOM_R50_NE BOM_R50_SE BOM_R50_SW BOM_R50_NW BOM_R64_NE BOM_R64_SE BOM_R64_SW BOM_R64_NW BOM_ROCI BOM_POCI BOM_EYE BOM_POS_METHOD BOM_PRES_METHOD NADI_LAT NADI_LON NADI_CAT NADI_WIND NADI_PRES WELLINGTON_LAT WELLINGTON_LON WELLINGTON_WIND WELLINGTON_PRES DS824_LAT DS824_LON DS824_STAGE DS824_WIND DS824_PRES TD9636_LAT TD9636_LON TD9636_STAGE TD9636_WIND TD9636_PRES TD9635_LAT TD9635_LON TD9635_WIND TD9635_PRES TD9635_ROCI NEUMANN_LAT NEUMANN_LON NEUMANN_CLASS NEUMANN_WIND NEUMANN_PRES MLC_LAT MLC_LON MLC_CLASS MLC_WIND MLC_PRES USA_GUST BOM_GUST BOM_GUST_PER REUNION_GUST REUNION_GUST_PER USA_SEAHGT USA_SEARAD_NE USA_SEARAD_SE USA_SEARAD_SW USA_SEARAD_NW STORM_SPEED STORM_DIR
1969237N30282 1969 62 NA NA EVE 1969-08-25 00:00:00 TS 29.5000 -78.5000 30 hurdat_atl main 224 224 O_____________ hurdat_atl AL121969 29.5000 -78.5000 TD 30 -1 6 80
1969237N30282 1969 62 NA NA EVE 1969-08-25 03:00:00 TS 29.5501 -78.1701 main 254 254 P_____________ AL121969 29.5501 -78.1701 TD 30 -1 6 81
1969237N30282 1969 62 NA NA EVE 1969-08-25 06:00:00 TS 29.6000 -77.8000 30 hurdat_atl main 289 289 O_____________ hurdat_atl AL121969 29.6000 -77.8000 TD 30 -1 7 82
1969237N30282 1969 62 NA NA EVE 1969-08-25 09:00:00 TS 29.6500 -77.3650 main 329 325 P_____________ AL121969 29.6500 -77.3650 TD 30 -1 8 83
1969237N30282 1969 62 NA NA EVE 1969-08-25 12:00:00 TS 29.7000 -76.9000 30 hurdat_atl main 374 374 O_____________ hurdat_atl AL121969 29.7000 -76.9000 TD 30 -1 8 83
1969237N30282 1969 62 NA NA EVE 1969-08-25 15:00:00 TS 29.7423 -76.4499 main 419 419 P_____________ AL121969 29.7423 -76.4499 TD 35 0 8 83
1969237N30282 1969 62 NA NA EVE 1969-08-25 18:00:00 TS 29.8000 -76.0000 40 hurdat_atl main 459 459 O_____________ hurdat_atl AL121969 29.8000 -76.0000 TS 40 0 8 80
1969237N30282 1969 62 NA NA EVE 1969-08-25 21:00:00 TS 29.8849 -75.5424 main 504 503 P_____________ AL121969 29.8849 -75.5424 TS 45 0 8 76
1969237N30282 1969 62 NA NA EVE 1969-08-26 00:00:00 TS 30.0000 -75.1000 50 999 hurdat_atl main 513 513 O_____________ hurdat_atl AL121969 30.0000 -75.1000 TS 50 999 0 8 72
1969237N30282 1969 62 NA NA EVE 1969-08-26 03:00:00 TS 30.1274 -74.6848 main 525 522 P_____________ AL121969 30.1274 -74.6848 TS 47 998 0 8 67
1969237N30282 1969 62 NA NA EVE 1969-08-26 06:00:00 TS 30.3000 -74.3000 45 hurdat_atl main 531 519 I_____________ hurdat_atl AL121969 30.3000 -74.3000 TS 45 997 0 7 58
1969237N30282 1969 62 NA NA EVE 1969-08-26 09:00:00 TS 30.5272 -73.9572 main 523 507 P_____________ AL121969 30.5272 -73.9572 TS 45 996 0 8 50
1969237N30282 1969 62 NA NA EVE 1969-08-26 12:00:00 TS 30.8000 -73.6000 45 996 hurdat_atl main 512 503 O_____________ hurdat_atl AL121969 30.8000 -73.6000 TS 45 996 0 9 49
1969237N30282 1969 62 NA NA EVE 1969-08-26 15:00:00 TS 31.0922 -73.1872 main 505 502 P_____________ AL121969 31.0922 -73.1872 TS 42 996 0 10 52
1969237N30282 1969 62 NA NA EVE 1969-08-26 18:00:00 TS 31.4000 -72.7000 40 997 hurdat_atl main 510 508 O_____________ hurdat_atl AL121969 31.4000 -72.7000 TS 40 997 0 11 55
1969237N30282 1969 62 NA NA EVE 1969-08-26 21:00:00 TS 31.7072 -72.1448 main 527 527 P_____________ AL121969 31.7072 -72.1448 TS 35 0 12 60
1969237N30282 1969 62 NA NA EVE 1969-08-27 00:00:00 TS 32.0000 -71.5000 30 hurdat_atl main 549 549 O_____________ hurdat_atl AL121969 32.0000 -71.5000 TD 30 -1 13 64
1969237N30282 1969 62 NA NA EVE 1969-08-27 03:00:00 TS 32.2803 -70.7503 main 581 581 P_____________ AL121969 32.2803 -70.7503 TD 30 -1 14 68
1969237N30282 1969 62 NA NA EVE 1969-08-27 06:00:00 TS 32.5000 -70.0000 30 hurdat_atl main 624 624 O_____________ hurdat_atl AL121969 32.5000 -70.0000 TD 30 -1 12 73
1969237N30282 1969 62 NA NA EVE 1969-08-27 09:00:00 TS 32.6292 -69.3844 main 663 663 P_____________ AL121969 32.6292 -69.3844 TD 30 -1 10 79
1969237N30282 1969 62 NA NA EVE 1969-08-27 12:00:00 TS 32.7000 -68.8000 30 hurdat_atl main 704 704 O_____________ hurdat_atl AL121969 32.7000 -68.8000 TD 30 -1 10 83
1969237N30282 1969 62 NA NA EVE 1969-08-27 15:00:00 TS 32.7535 -68.1678 main 747 747 P_____________ AL121969 32.7535 -68.1678 TD 27 -1 11 85
1969237N30282 1969 62 NA NA EVE 1969-08-27 18:00:00 TS 32.8000 -67.5000 25 1009 hurdat_atl main 805 O_____________ hurdat_atl AL121969 32.8000 -67.5000 TD 25 1009 -1 11 85

About IBTrACS Database

This database is a web-friendly format of International Best Track Archive for Climate Stewardship (IBTrACS), a global best track data archive curated by NOAA dating back to 1842.

Updated: 2021-10-21